sensor_id;sensor_type;location;lat;lon;timestamp;pressure;altitude;pressure_sealevel;temperature;humidity
15646;BME280;7922;43.622;1.476;2023-03-01T00:00:36;100680.75;;;-0.09;71.03
15646;BME280;7922;43.622;1.476;2023-03-01T00:03:01;100050.00;;;-3.74;69.70
15646;BME280;7922;43.622;1.476;2023-03-01T00:05:26;100531.44;;;-0.87;69.46
15646;BME280;7922;43.622;1.476;2023-03-01T00:07:54;100640.75;;;-0.16;68.99
15646;BME280;7922;43.622;1.476;2023-03-01T00:10:20;100665.25;;;0.00;69.65
15646;BME280;7922;43.622;1.476;2023-03-01T00:12:45;100521.97;;;-0.85;69.73
15646;BME280;7922;43.622;1.476;2023-03-01T00:15:10;100581.44;;;-0.41;69.78
15646;BME280;7922;43.622;1.476;2023-03-01T00:17:36;100711.69;;;0.38;69.48
15646;BME280;7922;43.622;1.476;2023-03-01T00:20:01;100690.78;;;0.36;69.40
15646;BME280;7922;43.622;1.476;2023-03-01T00:22:26;100586.06;;;-0.16;69.19
15646;BME280;7922;43.622;1.476;2023-03-01T00:24:52;100672.56;;;0.36;69.57
15646;BME280;7922;43.622;1.476;2023-03-01T00:27:17;100732.81;;;0.65;69.89
15646;BME280;7922;43.622;1.476;2023-03-01T00:29:42;100661.13;;;0.19;70.52
15646;BME280;7922;43.622;1.476;2023-03-01T00:32:07;100648.88;;;0.12;70.14
15646;BME280;7922;43.622;1.476;2023-03-01T00:34:33;100709.06;;;0.38;70.31
15646;BME280;7922;43.622;1.476;2023-03-01T00:36:58;100644.41;;;0.02;71.17
15646;BME280;7922;43.622;1.476;2023-03-01T00:39:23;100632.16;;;-0.09;71.22
15646;BME280;7922;43.622;1.476;2023-03-01T00:41:49;100607.66;;;-0.26;71.82
15646;BME280;7922;43.622;1.476;2023-03-01T00:44:14;100595.41;;;-0.35;72.27
15646;BME280;7922;43.622;1.476;2023-03-01T00:46:39;100462.75;;;-1.08;70.11
15646;BME280;7922;43.622;1.476;2023-03-01T00:49:04;100615.41;;;-0.32;72.48
15646;BME280;7922;43.622;1.476;2023-03-01T00:51:30;100678.19;;;-0.05;73.21
15646;BME280;7922;43.622;1.476;2023-03-01T00:53:58;100512.19;;;-1.05;73.98
15646;BME280;7922;43.622;1.476;2023-03-01T00:56:24;100480.59;;;-1.34;74.74
15646;BME280;7922;43.622;1.476;2023-03-01T00:58:49;100378.59;;;-1.84;73.65
15646;BME280;7922;43.622;1.476;2023-03-01T01:01:18;100684.19;;;-0.13;71.88
15646;BME280;7922;43.622;1.476;2023-03-01T01:03:49;100642.31;;;-0.30;71.50
15646;BME280;7922;43.622;1.476;2023-03-01T01:06:30;100630.72;;;-0.57;73.26
15646;BME280;7922;43.622;1.476;2023-03-01T01:08:56;100551.25;;;-1.00;73.53
15646;BME280;7922;43.622;1.476;2023-03-01T01:11:23;100587.78;;;-0.88;74.01
15646;BME280;7922;43.622;1.476;2023-03-01T01:13:49;100708.47;;;-0.14;73.97
15646;BME280;7922;43.622;1.476;2023-03-01T01:16:16;100552.88;;;-1.07;72.62
15646;BME280;7922;43.622;1.476;2023-03-01T01:18:43;100622.72;;;-0.72;71.68
15646;BME280;7922;43.622;1.476;2023-03-01T01:21:13;100690.03;;;-0.33;72.86
15646;BME280;7922;43.622;1.476;2023-03-01T01:23:40;100622.66;;;-0.74;73.13
15646;BME280;7922;43.622;1.476;2023-03-01T01:26:08;100697.00;;;-0.29;72.50
15646;BME280;7922;43.622;1.476;2023-03-01T01:28:34;100582.53;;;-0.94;71.50
15646;BME280;7922;43.622;1.476;2023-03-01T01:30:59;100556.22;;;-1.14;72.81
15646;BME280;7922;43.622;1.476;2023-03-01T01:33:25;100468.84;;;-1.68;72.97
15646;BME280;7922;43.622;1.476;2023-03-01T01:35:50;100701.06;;;-0.47;74.13
15646;BME280;7922;43.622;1.476;2023-03-01T01:38:16;100678.34;;;-0.61;75.22
15646;BME280;7922;43.622;1.476;2023-03-01T01:40:45;100663.38;;;-0.77;75.01
15646;BME280;7922;43.622;1.476;2023-03-01T01:43:29;100673.00;;;-0.71;73.70
15646;BME280;7922;43.622;1.476;2023-03-01T01:46:04;100645.09;;;-0.80;73.66
15646;BME280;7922;43.622;1.476;2023-03-01T01:48:42;100495.63;;;-1.72;74.62
15646;BME280;7922;43.622;1.476;2023-03-01T01:51:16;100502.59;;;-1.68;74.30
15646;BME280;7922;43.622;1.476;2023-03-01T01:53:46;100569.66;;;-1.44;74.10
15646;BME280;7922;43.622;1.476;2023-03-01T01:56:14;100618.63;;;-1.14;74.81
15646;BME280;7922;43.622;1.476;2023-03-01T01:58:42;100668.44;;;-0.86;75.45
15646;BME280;7922;43.622;1.476;2023-03-01T02:01:08;100580.06;;;-1.44;76.26
15646;BME280;7922;43.622;1.476;2023-03-01T02:03:34;100622.78;;;-1.25;76.07
15646;BME280;7922;43.622;1.476;2023-03-01T02:08:38;100587.63;;;-1.58;76.91
15646;BME280;7922;43.622;1.476;2023-03-01T02:11:05;100615.63;;;-1.40;76.98
15646;BME280;7922;43.622;1.476;2023-03-01T02:13:32;100411.13;;;-2.61;76.55
15646;BME280;7922;43.622;1.476;2023-03-01T02:15:58;100557.88;;;-1.75;76.71
15646;BME280;7922;43.622;1.476;2023-03-01T02:18:24;100576.22;;;-1.66;77.15
15646;BME280;7922;43.622;1.476;2023-03-01T02:23:40;100613.66;;;-1.53;77.39
15646;BME280;7922;43.622;1.476;2023-03-01T02:26:15;100647.16;;;-1.17;78.07
15646;BME280;7922;43.622;1.476;2023-03-01T02:28:43;100566.53;;;-1.76;77.75
15646;BME280;7922;43.622;1.476;2023-03-01T02:31:10;100441.78;;;-2.38;78.08
15646;BME280;7922;43.622;1.476;2023-03-01T02:33:39;100513.38;;;-2.00;77.17
15646;BME280;7922;43.622;1.476;2023-03-01T02:36:09;100366.72;;;-2.79;77.29
15646;BME280;7922;43.622;1.476;2023-03-01T02:38:35;100366.81;;;-2.75;76.96
15646;BME280;7922;43.622;1.476;2023-03-01T02:41:01;100532.97;;;-1.64;76.82
15646;BME280;7922;43.622;1.476;2023-03-01T02:43:30;100560.72;;;-1.63;77.73
15646;BME280;7922;43.622;1.476;2023-03-01T02:46:12;100459.31;;;-2.22;77.79
15646;BME280;7922;43.622;1.476;2023-03-01T02:48:54;100585.06;;;-1.55;77.58
15646;BME280;7922;43.622;1.476;2023-03-01T02:56:40;100400.03;;;-3.01;79.13
15646;BME280;7922;43.622;1.476;2023-03-01T02:59:07;100428.75;;;-2.90;80.11
15646;BME280;7922;43.622;1.476;2023-03-01T03:01:33;100531.72;;;-2.37;79.91
15646;BME280;7922;43.622;1.476;2023-03-01T03:04:00;100612.47;;;-1.74;79.70
15646;BME280;7922;43.622;1.476;2023-03-01T03:06:25;100576.41;;;-2.05;79.90
15646;BME280;7922;43.622;1.476;2023-03-01T03:08:50;100556.50;;;-2.06;79.77
15646;BME280;7922;43.622;1.476;2023-03-01T03:11:16;100499.78;;;-2.33;79.43
15646;BME280;7922;43.622;1.476;2023-03-01T03:13:41;100488.53;;;-2.34;79.60
15646;BME280;7922;43.622;1.476;2023-03-01T03:16:06;100496.38;;;-2.31;79.30
15646;BME280;7922;43.622;1.476;2023-03-01T03:18:32;100544.34;;;-2.07;78.71
15646;BME280;7922;43.622;1.476;2023-03-01T03:20:57;100582.88;;;-1.82;78.89
15646;BME280;7922;43.622;1.476;2023-03-01T03:23:22;100364.34;;;-3.14;79.33
15646;BME280;7922;43.622;1.476;2023-03-01T03:25:49;100567.84;;;-2.01;79.78
15646;BME280;7922;43.622;1.476;2023-03-01T03:28:15;100370.34;;;-3.17;79.59
15646;BME280;7922;43.622;1.476;2023-03-01T03:30:41;100443.72;;;-2.74;79.43
15646;BME280;7922;43.622;1.476;2023-03-01T03:33:08;100470.56;;;-2.72;80.27
15646;BME280;7922;43.622;1.476;2023-03-01T03:35:40;100514.16;;;-2.51;80.25
15646;BME280;7922;43.622;1.476;2023-03-01T03:38:07;100604.34;;;-1.92;80.73
15646;BME280;7922;43.622;1.476;2023-03-01T03:40:39;100612.16;;;-1.90;80.85
15646;BME280;7922;43.622;1.476;2023-03-01T03:43:09;100438.25;;;-2.89;80.42
15646;BME280;7922;43.622;1.476;2023-03-01T03:45:36;100366.50;;;-3.37;79.73
15646;BME280;7922;43.622;1.476;2023-03-01T03:48:03;100475.63;;;-2.76;80.49
15646;BME280;7922;43.622;1.476;2023-03-01T03:50:28;100513.34;;;-2.48;80.15
15646;BME280;7922;43.622;1.476;2023-03-01T03:52:54;100508.78;;;-2.61;80.80
15646;BME280;7922;43.622;1.476;2023-03-01T03:55:19;100514.88;;;-2.58;80.45
15646;BME280;7922;43.622;1.476;2023-03-01T03:57:47;100429.28;;;-3.06;80.51
15646;BME280;7922;43.622;1.476;2023-03-01T04:00:12;100551.31;;;-2.52;80.75
15646;BME280;7922;43.622;1.476;2023-03-01T04:02:42;100551.72;;;-2.32;81.04
15646;BME280;7922;43.622;1.476;2023-03-01T04:05:08;100354.22;;;-3.47;80.81
15646;BME280;7922;43.622;1.476;2023-03-01T04:07:35;100541.19;;;-2.39;80.52
15646;BME280;7922;43.622;1.476;2023-03-01T04:10:03;100535.84;;;-2.47;81.00
15646;BME280;7922;43.622;1.476;2023-03-01T04:12:28;100606.44;;;-2.18;80.65
15646;BME280;7922;43.622;1.476;2023-03-01T04:14:53;100435.44;;;-3.01;80.94
15646;BME280;7922;43.622;1.476;2023-03-01T04:17:19;100517.59;;;-2.53;80.93
15646;BME280;7922;43.622;1.476;2023-03-01T04:19:44;100504.38;;;-2.66;80.87
15646;BME280;7922;43.622;1.476;2023-03-01T04:22:09;100531.16;;;-2.67;80.76
15646;BME280;7922;43.622;1.476;2023-03-01T04:24:35;100263.00;;;-4.20;80.34
15646;BME280;7922;43.622;1.476;2023-03-01T04:27:01;100405.78;;;-3.56;81.30
15646;BME280;7922;43.622;1.476;2023-03-01T04:29:26;100377.06;;;-3.70;81.90
15646;BME280;7922;43.622;1.476;2023-03-01T04:31:52;100565.88;;;-2.58;82.18
15646;BME280;7922;43.622;1.476;2023-03-01T04:34:17;100467.25;;;-3.08;81.54
15646;BME280;7922;43.622;1.476;2023-03-01T04:36:42;100378.94;;;-3.61;81.31
15646;BME280;7922;43.622;1.476;2023-03-01T04:39:07;100448.91;;;-3.19;81.82
15646;BME280;7922;43.622;1.476;2023-03-01T04:41:33;100500.47;;;-2.89;80.84
15646;BME280;7922;43.622;1.476;2023-03-01T04:43:58;100550.31;;;-2.60;81.55
15646;BME280;7922;43.622;1.476;2023-03-01T04:46:23;100374.94;;;-3.88;81.19
15646;BME280;7922;43.622;1.476;2023-03-01T04:48:49;100494.09;;;-3.05;81.83
15646;BME280;7922;43.622;1.476;2023-03-01T04:51:14;100517.66;;;-2.93;82.32
15646;BME280;7922;43.622;1.476;2023-03-01T04:53:40;100570.25;;;-2.56;82.14
15646;BME280;7922;43.622;1.476;2023-03-01T04:56:06;100550.94;;;-2.72;81.98
15646;BME280;7922;43.622;1.476;2023-03-01T04:58:32;100419.75;;;-3.50;81.68
15646;BME280;7922;43.622;1.476;2023-03-01T05:00:57;100481.63;;;-3.23;81.87
15646;BME280;7922;43.622;1.476;2023-03-01T05:03:22;100490.28;;;-3.22;82.18
15646;BME280;7922;43.622;1.476;2023-03-01T05:05:50;100436.09;;;-3.52;82.28
15646;BME280;7922;43.622;1.476;2023-03-01T05:08:15;100318.34;;;-4.12;82.19
15646;BME280;7922;43.622;1.476;2023-03-01T05:10:41;100480.72;;;-3.23;82.23
15646;BME280;7922;43.622;1.476;2023-03-01T05:13:06;100298.88;;;-4.34;81.73
15646;BME280;7922;43.622;1.476;2023-03-01T05:15:32;100457.94;;;-3.41;82.39
15646;BME280;7922;43.622;1.476;2023-03-01T05:17:59;100553.38;;;-2.79;82.14
15646;BME280;7922;43.622;1.476;2023-03-01T05:20:26;100583.06;;;-2.63;82.28
15646;BME280;7922;43.622;1.476;2023-03-01T05:22:52;100316.53;;;-4.16;82.60
15646;BME280;7922;43.622;1.476;2023-03-01T05:25:19;100474.81;;;-3.18;81.96
15646;BME280;7922;43.622;1.476;2023-03-01T05:27:45;100442.13;;;-3.53;81.71
15646;BME280;7922;43.622;1.476;2023-03-01T05:30:10;100513.69;;;-3.16;81.50
15646;BME280;7922;43.622;1.476;2023-03-01T05:32:36;100555.75;;;-2.88;81.76
15646;BME280;7922;43.622;1.476;2023-03-01T05:35:01;100519.97;;;-3.06;82.37
15646;BME280;7922;43.622;1.476;2023-03-01T05:37:26;100448.31;;;-3.45;83.00
15646;BME280;7922;43.622;1.476;2023-03-01T05:39:52;100517.28;;;-3.11;83.25
15646;BME280;7922;43.622;1.476;2023-03-01T05:42:17;100472.81;;;-3.31;83.09
15646;BME280;7922;43.622;1.476;2023-03-01T05:44:42;100476.16;;;-3.35;83.05
15646;BME280;7922;43.622;1.476;2023-03-01T05:47:07;100481.88;;;-3.51;83.44
15646;BME280;7922;43.622;1.476;2023-03-01T05:49:33;100534.16;;;-3.28;82.90
15646;BME280;7922;43.622;1.476;2023-03-01T05:51:58;100484.91;;;-3.69;83.48
15646;BME280;7922;43.622;1.476;2023-03-01T05:54:23;100393.00;;;-4.27;83.77
15646;BME280;7922;43.622;1.476;2023-03-01T05:56:49;100581.03;;;-3.18;84.27
15646;BME280;7922;43.622;1.476;2023-03-01T05:59:14;100414.06;;;-4.11;84.20
15646;BME280;7922;43.622;1.476;2023-03-01T06:01:40;100463.97;;;-3.78;84.00
15646;BME280;7922;43.622;1.476;2023-03-01T06:04:05;100526.16;;;-3.39;84.24
15646;BME280;7922;43.622;1.476;2023-03-01T06:06:35;100582.16;;;-3.06;84.31
15646;BME280;7922;43.622;1.476;2023-03-01T06:09:01;100525.31;;;-3.38;84.28
15646;BME280;7922;43.622;1.476;2023-03-01T06:11:26;100514.06;;;-3.40;84.29
15646;BME280;7922;43.622;1.476;2023-03-01T06:13:51;100302.59;;;-4.61;83.75
15646;BME280;7922;43.622;1.476;2023-03-01T06:16:17;100527.25;;;-3.29;83.46
15646;BME280;7922;43.622;1.476;2023-03-01T06:18:42;100503.63;;;-3.43;83.50
15646;BME280;7922;43.622;1.476;2023-03-01T06:21:08;100348.94;;;-4.32;83.23
15646;BME280;7922;43.622;1.476;2023-03-01T06:23:34;100419.78;;;-3.88;82.89
15646;BME280;7922;43.622;1.476;2023-03-01T06:26:00;100368.09;;;-4.22;83.29
15646;BME280;7922;43.622;1.476;2023-03-01T06:28:26;100531.31;;;-3.41;82.97
15646;BME280;7922;43.622;1.476;2023-03-01T06:30:51;100423.03;;;-3.96;83.68
15646;BME280;7922;43.622;1.476;2023-03-01T06:33:18;100468.59;;;-3.65;83.62
15646;BME280;7922;43.622;1.476;2023-03-01T06:35:43;100451.22;;;-3.71;82.94
15646;BME280;7922;43.622;1.476;2023-03-01T06:38:09;100351.97;;;-4.11;82.47
15646;BME280;7922;43.622;1.476;2023-03-01T06:40:34;100435.75;;;-3.68;82.04
15646;BME280;7922;43.622;1.476;2023-03-01T06:42:59;100478.75;;;-3.36;82.16
15646;BME280;7922;43.622;1.476;2023-03-01T06:45:25;100501.28;;;-3.32;82.41
15646;BME280;7922;43.622;1.476;2023-03-01T06:47:50;100543.25;;;-3.08;81.81
15646;BME280;7922;43.622;1.476;2023-03-01T06:50:16;100466.81;;;-3.68;82.30
15646;BME280;7922;43.622;1.476;2023-03-01T06:52:42;100340.97;;;-4.40;83.01
15646;BME280;7922;43.622;1.476;2023-03-01T06:55:08;100536.75;;;-3.28;82.94
15646;BME280;7922;43.622;1.476;2023-03-01T06:57:33;100531.84;;;-3.16;82.69
15646;BME280;7922;43.622;1.476;2023-03-01T06:59:58;100511.03;;;-3.21;82.84
15646;BME280;7922;43.622;1.476;2023-03-01T07:02:24;100472.69;;;-3.37;82.03
15646;BME280;7922;43.622;1.476;2023-03-01T07:04:50;100467.38;;;-3.43;82.50
15646;BME280;7922;43.622;1.476;2023-03-01T07:07:16;100410.03;;;-3.60;82.17
15646;BME280;7922;43.622;1.476;2023-03-01T07:09:42;100420.97;;;-3.34;81.07
15646;BME280;7922;43.622;1.476;2023-03-01T07:12:07;100462.28;;;-2.98;80.39
15646;BME280;7922;43.622;1.476;2023-03-01T07:14:33;100475.56;;;-2.81;80.19
15646;BME280;7922;43.622;1.476;2023-03-01T07:16:58;100424.13;;;-3.05;79.39
15646;BME280;7922;43.622;1.476;2023-03-01T07:19:23;100521.53;;;-2.27;79.02
15646;BME280;7922;43.622;1.476;2023-03-01T07:21:49;100571.66;;;-1.81;79.19
15646;BME280;7922;43.622;1.476;2023-03-01T07:24:14;100303.63;;;-3.30;77.78
15646;BME280;7922;43.622;1.476;2023-03-01T07:26:39;100543.06;;;-1.82;77.43
15646;BME280;7922;43.622;1.476;2023-03-01T07:29:06;100370.41;;;-2.67;77.49
15646;BME280;7922;43.622;1.476;2023-03-01T07:31:32;100562.72;;;-1.45;77.32
15646;BME280;7922;43.622;1.476;2023-03-01T07:33:58;100322.69;;;-2.78;76.05
15646;BME280;7922;43.622;1.476;2023-03-01T07:36:24;100545.53;;;-1.35;75.64
15646;BME280;7922;43.622;1.476;2023-03-01T07:38:49;100387.63;;;-2.17;74.82
15646;BME280;7922;43.622;1.476;2023-03-01T07:41:15;100535.44;;;-1.15;75.08
15646;BME280;7922;43.622;1.476;2023-03-01T07:43:40;100537.44;;;-0.94;74.36
15646;BME280;7922;43.622;1.476;2023-03-01T07:46:06;100510.31;;;-1.13;74.42
15646;BME280;7922;43.622;1.476;2023-03-01T07:48:32;100467.66;;;-1.31;74.22
15646;BME280;7922;43.622;1.476;2023-03-01T07:51:01;100531.59;;;-0.78;74.25
15646;BME280;7922;43.622;1.476;2023-03-01T07:53:27;100529.06;;;-0.72;73.10
15646;BME280;7922;43.622;1.476;2023-03-01T07:58:30;100544.16;;;-0.40;73.48
15646;BME280;7922;43.622;1.476;2023-03-01T08:00:55;100593.25;;;0.07;72.70
15646;BME280;7922;43.622;1.476;2023-03-01T08:03:20;100524.38;;;-0.23;72.21
15646;BME280;7922;43.622;1.476;2023-03-01T08:05:46;100381.47;;;-0.91;71.30
15646;BME280;7922;43.622;1.476;2023-03-01T08:08:11;100570.78;;;0.18;71.07
15646;BME280;7922;43.622;1.476;2023-03-01T08:10:36;100464.47;;;-0.26;70.54
15646;BME280;7922;43.622;1.476;2023-03-01T08:13:02;100570.16;;;0.45;70.27
15646;BME280;7922;43.622;1.476;2023-03-01T08:15:27;100525.78;;;0.34;69.98
15646;BME280;7922;43.622;1.476;2023-03-01T08:17:52;100513.59;;;0.36;69.96
15646;BME280;7922;43.622;1.476;2023-03-01T08:20:18;100464.91;;;0.23;69.56
15646;BME280;7922;43.622;1.476;2023-03-01T08:22:43;100514.59;;;0.52;68.79
15646;BME280;7922;43.622;1.476;2023-03-01T08:25:08;100300.41;;;-0.43;67.94
15646;BME280;7922;43.622;1.476;2023-03-01T08:27:34;100479.97;;;0.70;68.24
15646;BME280;7922;43.622;1.476;2023-03-01T08:29:59;100435.56;;;0.58;67.48
15646;BME280;7922;43.622;1.476;2023-03-01T08:32:24;100470.50;;;0.87;66.87
15646;BME280;7922;43.622;1.476;2023-03-01T08:34:49;100439.09;;;0.69;66.04
15646;BME280;7922;43.622;1.476;2023-03-01T08:37:15;100433.13;;;0.93;66.12
15646;BME280;7922;43.622;1.476;2023-03-01T08:39:40;100533.31;;;1.39;64.18
15646;BME280;7922;43.622;1.476;2023-03-01T08:42:05;100327.72;;;0.28;63.40
15646;BME280;7922;43.622;1.476;2023-03-01T08:44:30;100529.91;;;1.59;62.01
15646;BME280;7922;43.622;1.476;2023-03-01T08:46:56;100347.69;;;0.28;61.99
15646;BME280;7922;43.622;1.476;2023-03-01T08:49:21;100481.06;;;1.23;62.53
15646;BME280;7922;43.622;1.476;2023-03-01T08:51:47;100565.66;;;1.78;62.70
15646;BME280;7922;43.622;1.476;2023-03-01T08:54:18;100418.44;;;1.21;61.20
15646;BME280;7922;43.622;1.476;2023-03-01T08:56:44;100538.72;;;2.01;61.85
15646;BME280;7922;43.622;1.476;2023-03-01T08:59:13;100553.53;;;2.20;60.79
15646;BME280;7922;43.622;1.476;2023-03-01T09:01:39;100568.28;;;1.92;60.36
15646;BME280;7922;43.622;1.476;2023-03-01T09:04:05;100390.50;;;0.85;60.72
15646;BME280;7922;43.622;1.476;2023-03-01T09:06:33;100482.91;;;1.50;60.28
15646;BME280;7922;43.622;1.476;2023-03-01T09:08:59;100307.00;;;0.60;60.59
15646;BME280;7922;43.622;1.476;2023-03-01T09:11:24;100502.06;;;1.56;60.44
15646;BME280;7922;43.622;1.476;2023-03-01T09:13:50;100493.38;;;1.60;59.44
15646;BME280;7922;43.622;1.476;2023-03-01T09:16:18;100455.00;;;1.27;60.23
15646;BME280;7922;43.622;1.476;2023-03-01T09:18:44;100559.63;;;2.24;60.05
15646;BME280;7922;43.622;1.476;2023-03-01T09:21:14;100381.06;;;1.28;59.34
15646;BME280;7922;43.622;1.476;2023-03-01T09:23:44;100449.84;;;1.50;59.68
15646;BME280;7922;43.622;1.476;2023-03-01T09:26:12;100390.66;;;1.66;59.05
15646;BME280;7922;43.622;1.476;2023-03-01T09:28:38;100475.09;;;2.28;58.69
15646;BME280;7922;43.622;1.476;2023-03-01T09:31:04;100491.63;;;2.47;57.79
15646;BME280;7922;43.622;1.476;2023-03-01T09:33:31;100302.75;;;1.14;57.88
15646;BME280;7922;43.622;1.476;2023-03-01T09:36:02;100353.22;;;1.78;57.39
15646;BME280;7922;43.622;1.476;2023-03-01T09:38:28;100480.28;;;2.68;57.06
15646;BME280;7922;43.622;1.476;2023-03-01T09:40:54;100473.28;;;2.77;57.13
15646;BME280;7922;43.622;1.476;2023-03-01T09:43:48;100514.22;;;2.94;57.01
15646;BME280;7922;43.622;1.476;2023-03-01T09:46:16;100505.50;;;2.95;55.63
15646;BME280;7922;43.622;1.476;2023-03-01T09:48:48;100440.22;;;2.49;55.98
15646;BME280;7922;43.622;1.476;2023-03-01T09:51:22;100502.78;;;3.22;55.79
15646;BME280;7922;43.622;1.476;2023-03-01T09:53:49;100421.00;;;2.67;53.71
15646;BME280;7922;43.622;1.476;2023-03-01T09:56:22;100296.66;;;1.89;54.21
15646;BME280;7922;43.622;1.476;2023-03-01T10:04:47;100328.63;;;2.63;51.16
15646;BME280;7922;43.622;1.476;2023-03-01T10:10:08;100304.19;;;2.61;51.58
15646;BME280;7922;43.622;1.476;2023-03-01T10:12:40;100361.59;;;2.90;50.77
15646;BME280;7922;43.622;1.476;2023-03-01T10:15:07;100476.00;;;4.16;50.43
15646;BME280;7922;43.622;1.476;2023-03-01T10:21:01;100300.28;;;3.29;48.48
15646;BME280;7922;43.622;1.476;2023-03-01T10:23:01;100403.78;;;3.79;47.75
15646;BME280;7922;43.622;1.476;2023-03-01T10:28:26;100474.41;;;3.98;47.31
15646;BME280;7922;43.622;1.476;2023-03-01T10:30:57;100461.41;;;3.81;48.70
15646;BME280;7922;43.622;1.476;2023-03-01T10:33:25;100286.63;;;2.86;46.92
15646;BME280;7922;43.622;1.476;2023-03-01T10:35:51;100413.41;;;3.76;46.47
15646;BME280;7922;43.622;1.476;2023-03-01T10:38:17;100415.09;;;3.86;46.57
15646;BME280;7922;43.622;1.476;2023-03-01T10:40:55;100353.38;;;3.53;46.45
15646;BME280;7922;43.622;1.476;2023-03-01T10:43:21;100452.38;;;4.19;46.18
15646;BME280;7922;43.622;1.476;2023-03-01T10:45:47;100266.22;;;3.34;46.61
15646;BME280;7922;43.622;1.476;2023-03-01T10:48:18;100421.09;;;4.00;46.54
15646;BME280;7922;43.622;1.476;2023-03-01T10:50:48;100452.38;;;4.17;46.15
15646;BME280;7922;43.622;1.476;2023-03-01T10:53:27;100346.94;;;3.89;45.61
15646;BME280;7922;43.622;1.476;2023-03-01T10:56:06;100438.03;;;4.56;45.24
15646;BME280;7922;43.622;1.476;2023-03-01T10:58:33;100263.22;;;3.74;47.00
15646;BME280;7922;43.622;1.476;2023-03-01T11:13:53;100422.28;;;4.56;47.00
15646;BME280;7922;43.622;1.476;2023-03-01T11:19:15;100266.22;;;3.35;47.39
15646;BME280;7922;43.622;1.476;2023-03-01T11:21:43;100412.94;;;4.31;47.82
15646;BME280;7922;43.622;1.476;2023-03-01T11:24:12;100367.44;;;4.32;47.29
15646;BME280;7922;43.622;1.476;2023-03-01T11:26:41;100321.59;;;3.88;48.64
15646;BME280;7922;43.622;1.476;2023-03-01T11:29:50;100244.84;;;3.77;48.48
15646;BME280;7922;43.622;1.476;2023-03-01T11:32:10;100314.38;;;4.10;47.32
15646;BME280;7922;43.622;1.476;2023-03-01T11:34:44;100360.94;;;4.67;47.15
15646;BME280;7922;43.622;1.476;2023-03-01T11:37:44;100375.63;;;4.81;46.76
15646;BME280;7922;43.622;1.476;2023-03-01T11:40:23;100245.59;;;3.88;47.31
15646;BME280;7922;43.622;1.476;2023-03-01T11:46:00;100367.13;;;4.61;46.39
15646;BME280;7922;43.622;1.476;2023-03-01T11:51:03;100200.53;;;4.32;46.05
15646;BME280;7922;43.622;1.476;2023-03-01T11:53:52;100284.06;;;4.60;46.54
15646;BME280;7922;43.622;1.476;2023-03-01T12:25:20;100152.69;;;5.25;41.82
15646;BME280;7922;43.622;1.476;2023-03-01T12:34:07;100279.84;;;5.63;41.14
15646;BME280;7922;43.622;1.476;2023-03-01T12:39:24;100269.16;;;5.75;42.20
15646;BME280;7922;43.622;1.476;2023-03-01T12:45:14;100261.25;;;5.75;41.88
15646;BME280;7922;43.622;1.476;2023-03-01T12:50:24;100118.31;;;4.91;42.10
15646;BME280;7922;43.622;1.476;2023-03-01T12:52:52;100096.59;;;4.81;42.44
15646;BME280;7922;43.622;1.476;2023-03-01T12:55:38;100188.84;;;5.59;42.15
15646;BME280;7922;43.622;1.476;2023-03-01T13:01:24;100258.97;;;5.57;42.45
15646;BME280;7922;43.622;1.476;2023-03-01T13:09:13;100242.06;;;5.70;42.57
15646;BME280;7922;43.622;1.476;2023-03-01T13:11:44;100193.75;;;5.77;42.25
15646;BME280;7922;43.622;1.476;2023-03-01T13:16:47;100117.59;;;5.29;41.65
15646;BME280;7922;43.622;1.476;2023-03-01T13:21:45;100058.41;;;5.13;43.28
15646;BME280;7922;43.622;1.476;2023-03-01T13:29:51;100201.19;;;6.01;41.75
15646;BME280;7922;43.622;1.476;2023-03-01T13:32:29;100078.00;;;5.40;40.60
15646;BME280;7922;43.622;1.476;2023-03-01T13:34:57;100225.31;;;6.22;41.33
15646;BME280;7922;43.622;1.476;2023-03-01T13:37:26;100168.16;;;5.87;40.45
15646;BME280;7922;43.622;1.476;2023-03-01T13:39:52;100184.78;;;5.89;40.85
15646;BME280;7922;43.622;1.476;2023-03-01T13:42:41;100167.16;;;5.94;41.82
15646;BME280;7922;43.622;1.476;2023-03-01T13:48:03;100154.94;;;5.93;40.91
15646;BME280;7922;43.622;1.476;2023-03-01T13:50:38;100144.66;;;5.79;41.43
15646;BME280;7922;43.622;1.476;2023-03-01T13:53:14;100105.63;;;5.59;41.40
15646;BME280;7922;43.622;1.476;2023-03-01T13:55:44;100033.00;;;5.12;40.72
15646;BME280;7922;43.622;1.476;2023-03-01T13:58:23;100063.59;;;5.14;41.66
15646;BME280;7922;43.622;1.476;2023-03-01T14:01:04;100191.38;;;6.10;42.17
15646;BME280;7922;43.622;1.476;2023-03-01T14:03:31;99982.47;;;5.02;41.79
15646;BME280;7922;43.622;1.476;2023-03-01T14:06:06;100038.59;;;5.40;41.24
15646;BME280;7922;43.622;1.476;2023-03-01T14:08:33;100199.78;;;6.27;42.40
15646;BME280;7922;43.622;1.476;2023-03-01T14:16:22;100210.06;;;5.96;42.20
15646;BME280;7922;43.622;1.476;2023-03-01T14:21:30;99988.59;;;5.01;42.15
15646;BME280;7922;43.622;1.476;2023-03-01T14:23:56;100190.97;;;6.30;41.63
15646;BME280;7922;43.622;1.476;2023-03-01T14:26:23;100124.31;;;5.89;41.61
15646;BME280;7922;43.622;1.476;2023-03-01T14:28:49;100151.78;;;6.16;42.22
15646;BME280;7922;43.622;1.476;2023-03-01T14:31:41;100186.09;;;6.51;42.48
15646;BME280;7922;43.622;1.476;2023-03-01T14:34:21;100193.06;;;6.54;42.37
15646;BME280;7922;43.622;1.476;2023-03-01T14:36:46;100105.03;;;5.88;42.44
15646;BME280;7922;43.622;1.476;2023-03-01T14:39:23;100021.22;;;5.32;42.02
15646;BME280;7922;43.622;1.476;2023-03-01T14:41:48;100135.09;;;6.17;42.36
15646;BME280;7922;43.622;1.476;2023-03-01T14:44:19;100131.78;;;6.09;42.08
15646;BME280;7922;43.622;1.476;2023-03-01T14:46:46;100137.16;;;6.02;42.23
15646;BME280;7922;43.622;1.476;2023-03-01T14:51:42;99980.81;;;4.96;42.60
15646;BME280;7922;43.622;1.476;2023-03-01T14:54:39;100180.38;;;6.33;42.07
15646;BME280;7922;43.622;1.476;2023-03-01T14:57:14;100152.63;;;6.18;42.28
15646;BME280;7922;43.622;1.476;2023-03-01T14:59:41;99969.88;;;5.19;41.93
15646;BME280;7922;43.622;1.476;2023-03-01T15:02:13;100184.56;;;6.41;42.64
15646;BME280;7922;43.622;1.476;2023-03-01T15:04:41;100022.94;;;5.35;42.30
15646;BME280;7922;43.622;1.476;2023-03-01T15:07:12;100056.91;;;5.43;42.27
15646;BME280;7922;43.622;1.476;2023-03-01T15:09:39;100105.84;;;5.90;42.15
15646;BME280;7922;43.622;1.476;2023-03-01T15:12:44;100179.66;;;6.24;42.26
15646;BME280;7922;43.622;1.476;2023-03-01T15:17:53;100005.22;;;5.45;41.46